Prince Rupert Airport
CYPR : now visible

Airfield :











YOU CAN JOIN US ON...

 
LOGIN :

Register | Disclaimer

   EN    FR    IT 

 









Legend :    VFR   Marginal VFR   IFR   Intensive IFR   Very Intensive IFR
Visi :
Ceiling :
>= 8 km
>= 3000ft
5 to 8 km
1000 to 3000 ft
1500m to 5 km
500 to 1000 ft
800 to 1500m
200 to 500 ft
< 800m
< 200 ft
Symbols :   Thunderstorms  Fog  Heavy snow  Heavy precipitations  Wind > 20 kt






- Airport Elevation : 116 ft
- IATA code : YPR


CYPR - Prince Rupert

CURRENT METAR :
  • 171600Z AUTO 13004KT 9SM OVC070 M06/M11 A2996 RMK SLP150

EXPIRED METARs :
  • 171500Z AUTO 00000KT 9SM OVC080 M07/M10 A2995 RMK SLP147
  • 171400Z AUTO VRB02KT 9SM SCT060 OVC080 M06/M12 A2994 RMK SLP142

TAF TAF CYPR
Valid from the 17 at 13:00 until the 18 at 01:00 UTC


171238Z 1713/1801 VRB03KT P6SM FEW025 OVC040
TEMPO 1713/1801 3SM -SN BKN025
BECMG 1716/1718 09007KT RMK FCST BASED ON AUTO OBS. NXT FCST BY 171900Z



MET'MAP, your aeronautical weather chart ! - Copyright ORBIFLY December 2007 - Disclaimer

ORBIFLY MET'MAP TEAM :

Programming & Development : Alexandra Zaïnal
Concept & original design : Baudouin d'Aumeries
Assistance for programming : Marc-Olivier Méhu
Technical & hardware support : Manuel Goepfert

Contact : metmap@orbifly.com




SOURCES & CREDITS :

   NOAA       Earth
Advisory